Time;durP1;ratioP1;P1;durP2;ratioP2;P2;SDS_P1;SDS_P2;PMS_P1;PMS_P2;Temp;Humidity;BMP_temperature;BMP_pressure;BME280_temperature;BME280_humidity;BME280_pressure;Samples;Min_cycle;Max_cycle;Signal;HPM_P1;HPM_P2
2022/07/10 00:02:09;;;;;;;7.57;2.90;;;;;;;;;;4937842;29;20199;-81
2022/07/10 00:04:43;;;;;;;5.93;3.03;;;;;;;;;;4936101;29;20210;-80
2022/07/10 00:07:11;;;;;;;5.27;3.00;;;;;;;;;;4939903;29;20207;-81
2022/07/10 00:09:38;;;;;;;5.40;3.50;;;;;;;;;;4938562;28;20730;-81
2022/07/10 00:12:13;;;;;;;7.60;3.00;;;;;;;;;;4941711;29;20233;-81
2022/07/10 00:14:41;;;;;;;8.23;3.50;;;;;;;;;;4937748;29;20203;-80
2022/07/10 00:17:08;;;;;;;6.57;3.37;;;;;;;;;;4941164;29;20245;-81
2022/07/10 00:19:39;;;;;;;7.97;3.57;;;;;;;;;;4941893;28;20363;-81
2022/07/10 00:22:09;;;;;;;10.20;3.23;;;;;;;;;;4939712;29;20201;-81
2022/07/10 00:24:38;;;;;;;7.80;2.97;;;;;;;;;;4936115;29;20206;-81
2022/07/10 00:27:10;;;;;;;15.70;3.20;;;;;;;;;;4950104;29;20202;-80
2022/07/10 00:29:42;;;;;;;8.13;3.40;;;;;;;;;;4961035;29;20250;-80
2022/07/10 00:32:09;;;;;;;15.20;4.03;;;;;;;;;;4943352;28;20230;-79
2022/07/10 00:34:45;;;;;;;8.07;2.80;;;;;;;;;;4940362;29;20210;-80
2022/07/10 00:37:12;;;;;;;9.67;2.93;;;;;;;;;;4938335;28;20202;-80
2022/07/10 00:39:44;;;;;;;8.10;2.80;;;;;;;;;;4939626;29;20222;-81
2022/07/10 00:42:13;;;;;;;7.10;3.00;;;;;;;;;;4924578;29;20203;-81
2022/07/10 00:44:41;;;;;;;8.83;3.03;;;;;;;;;;4942758;29;20286;-81
2022/07/10 00:47:11;;;;;;;6.90;2.87;;;;;;;;;;4946318;29;20206;-80
2022/07/10 00:49:40;;;;;;;7.20;2.93;;;;;;;;;;4950181;28;20211;-79
2022/07/10 00:52:16;;;;;;;7.57;2.47;;;;;;;;;;4968888;28;20241;-79
2022/07/10 00:54:44;;;;;;;6.07;2.50;;;;;;;;;;4956034;28;20226;-81
2022/07/10 00:57:17;;;;;;;3.87;2.77;;;;;;;;;;4946032;29;20213;-80
2022/07/10 00:59:46;;;;;;;8.33;2.70;;;;;;;;;;4940691;28;20227;-80
2022/07/10 01:02:15;;;;;;;12.90;2.47;;;;;;;;;;4941188;29;20217;-79
2022/07/10 01:04:44;;;;;;;6.83;2.50;;;;;;;;;;4937714;29;20206;-80
2022/07/10 01:07:11;;;;;;;9.53;2.80;;;;;;;;;;4941380;29;20209;-80
2022/07/10 01:09:38;;;;;;;7.60;2.50;;;;;;;;;;4934735;28;20234;-80
2022/07/10 01:12:06;;;;;;;4.77;2.87;;;;;;;;;;4942142;29;20254;-80
2022/07/10 01:14:35;;;;;;;11.27;2.70;;;;;;;;;;4936570;29;20212;-79
2022/07/10 01:17:02;;;;;;;8.27;2.70;;;;;;;;;;4942838;29;20249;-79
2022/07/10 01:19:31;;;;;;;7.37;2.50;;;;;;;;;;4942172;29;20385;-79
2022/07/10 01:22:01;;;;;;;10.43;2.40;;;;;;;;;;4920377;29;20230;-79
2022/07/10 01:24:32;;;;;;;3.90;2.30;;;;;;;;;;4937889;29;20210;-80
2022/07/10 01:27:00;;;;;;;9.30;2.60;;;;;;;;;;4944849;29;20202;-80
2022/07/10 01:29:32;;;;;;;9.30;2.73;;;;;;;;;;4948566;29;20233;-79
2022/07/10 01:32:00;;;;;;;7.57;2.53;;;;;;;;;;4945466;29;20230;-79
2022/07/10 01:34:32;;;;;;;8.63;2.73;;;;;;;;;;4938608;29;20202;-80
2022/07/10 01:37:02;;;;;;;8.60;2.17;;;;;;;;;;4943219;29;20215;-79
2022/07/10 01:39:29;;;;;;;4.50;2.20;;;;;;;;;;4943709;29;20221;-79
2022/07/10 01:41:56;;;;;;;9.77;2.40;;;;;;;;;;4944457;29;20210;-79
2022/07/10 01:44:26;;;;;;;7.40;2.00;;;;;;;;;;4939289;29;20366;-79
2022/07/10 01:46:54;;;;;;;3.40;1.90;;;;;;;;;;4940273;29;20206;-80
2022/07/10 01:49:23;;;;;;;5.77;2.17;;;;;;;;;;4919684;29;20231;-80
2022/07/10 01:51:51;;;;;;;7.60;2.20;;;;;;;;;;4917685;29;20647;-80
2022/07/10 01:54:28;;;;;;;9.83;2.10;;;;;;;;;;4936689;29;20219;-79
2022/07/10 01:56:55;;;;;;;5.53;2.13;;;;;;;;;;4942337;29;20202;-79
2022/07/10 01:59:22;;;;;;;5.00;2.10;;;;;;;;;;4939201;29;20231;-81
2022/07/10 02:01:51;;;;;;;9.00;1.87;;;;;;;;;;4945612;29;20203;-81
2022/07/10 02:07:06;;;;;;;4.27;2.20;;;;;;;;;;4942926;29;20273;-79
2022/07/10 02:09:43;;;;;;;10.43;2.50;;;;;;;;;;4941729;28;20234;-79
2022/07/10 02:12:12;;;;;;;8.13;1.90;;;;;;;;;;4946725;29;20691;-80
2022/07/10 02:14:47;;;;;;;7.53;1.90;;;;;;;;;;4939195;29;20206;-80
2022/07/10 02:17:15;;;;;;;5.17;2.20;;;;;;;;;;4939062;29;20210;-80
2022/07/10 02:19:43;;;;;;;5.27;2.27;;;;;;;;;;4936380;29;20228;-80
2022/07/10 02:22:10;;;;;;;7.07;1.87;;;;;;;;;;4944290;29;20203;-80
2022/07/10 02:24:39;;;;;;;6.70;2.47;;;;;;;;;;4938525;29;20262;-80
2022/07/10 02:27:07;;;;;;;6.63;2.63;;;;;;;;;;4941370;29;20207;-80
2022/07/10 02:29:37;;;;;;;7.10;1.90;;;;;;;;;;4934194;28;21222;-80
2022/07/10 02:32:05;;;;;;;4.77;1.90;;;;;;;;;;4937631;29;20242;-80
2022/07/10 02:34:32;;;;;;;6.53;2.00;;;;;;;;;;4935781;29;20671;-80
2022/07/10 02:36:59;;;;;;;9.00;2.00;;;;;;;;;;4938685;29;20214;-80
2022/07/10 02:39:26;;;;;;;8.60;2.03;;;;;;;;;;4936041;28;20235;-80
2022/07/10 02:41:55;;;;;;;10.43;1.90;;;;;;;;;;4938513;29;20734;-80
2022/07/10 02:44:31;;;;;;;7.43;2.10;;;;;;;;;;4938035;29;20690;-80
2022/07/10 02:46:58;;;;;;;3.07;1.60;;;;;;;;;;4942375;29;20233;-80
2022/07/10 02:49:25;;;;;;;6.70;2.47;;;;;;;;;;4938052;28;20226;-80
2022/07/10 02:51:53;;;;;;;9.87;2.30;;;;;;;;;;4938907;29;20226;-80
2022/07/10 02:54:26;;;;;;;7.80;2.10;;;;;;;;;;4938469;29;20229;-80
2022/07/10 02:56:55;;;;;;;6.23;2.20;;;;;;;;;;4942325;29;20702;-80
2022/07/10 02:59:22;;;;;;;5.57;2.07;;;;;;;;;;4946708;28;20792;-80
2022/07/10 03:01:49;;;;;;;6.83;2.20;;;;;;;;;;4940881;29;20198;-80
2022/07/10 03:04:16;;;;;;;6.03;1.90;;;;;;;;;;4938303;29;20227;-80
2022/07/10 03:06:47;;;;;;;5.40;1.60;;;;;;;;;;4939968;29;20267;-80
2022/07/10 03:09:15;;;;;;;2.97;1.67;;;;;;;;;;4943044;28;20548;-80
2022/07/10 03:11:42;;;;;;;5.10;2.10;;;;;;;;;;4942473;29;20290;-80
2022/07/10 03:14:10;;;;;;;4.43;2.10;;;;;;;;;;4941683;29;20217;-80
2022/07/10 03:16:37;;;;;;;4.83;2.00;;;;;;;;;;4945818;29;20202;-80
2022/07/10 03:19:06;;;;;;;9.03;2.30;;;;;;;;;;4945447;28;20287;-81
2022/07/10 03:21:35;;;;;;;7.10;2.53;;;;;;;;;;4943992;29;20547;-80
2022/07/10 03:24:02;;;;;;;10.43;2.50;;;;;;;;;;4943705;29;20216;-80
2022/07/10 03:26:30;;;;;;;8.83;2.10;;;;;;;;;;4940950;29;20293;-80
2022/07/10 03:28:57;;;;;;;5.53;2.10;;;;;;;;;;4941338;29;20214;-80
2022/07/10 03:31:43;;;;;;;5.33;2.37;;;;;;;;;;4941525;29;20238;-80
2022/07/10 03:34:22;;;;;;;5.23;2.13;;;;;;;;;;4939990;29;20274;-80
2022/07/10 03:36:51;;;;;;;7.17;2.03;;;;;;;;;;4941747;29;20755;-80
2022/07/10 03:39:18;;;;;;;5.57;2.37;;;;;;;;;;4941882;29;20210;-80
2022/07/10 03:41:45;;;;;;;6.23;2.07;;;;;;;;;;4947545;29;20217;-79
2022/07/10 03:44:12;;;;;;;7.97;2.00;;;;;;;;;;4940937;29;20642;-79
2022/07/10 03:49:34;;;;;;;4.37;2.00;;;;;;;;;;4939675;28;20707;-80
2022/07/10 03:52:02;;;;;;;6.10;2.27;;;;;;;;;;4939303;29;20218;-80
2022/07/10 03:54:29;;;;;;;6.30;2.30;;;;;;;;;;4938095;29;20773;-79
2022/07/10 03:59:41;;;;;;;5.73;2.00;;;;;;;;;;4942583;28;20225;-79
2022/07/10 04:02:09;;;;;;;6.17;2.00;;;;;;;;;;4936484;29;20564;-80
2022/07/10 04:04:37;;;;;;;6.30;1.93;;;;;;;;;;4939409;29;20211;-80
2022/07/10 04:07:05;;;;;;;4.23;1.80;;;;;;;;;;4942242;29;20258;-80
2022/07/10 04:09:32;;;;;;;6.90;1.80;;;;;;;;;;4939762;29;20236;-81
2022/07/10 04:12:00;;;;;;;8.73;2.10;;;;;;;;;;4941454;29;20203;-81
2022/07/10 04:14:27;;;;;;;9.00;2.00;;;;;;;;;;4944156;29;20788;-81
2022/07/10 04:16:54;;;;;;;3.97;1.60;;;;;;;;;;4942926;29;20206;-80
2022/07/10 04:19:21;;;;;;;6.10;1.67;;;;;;;;;;4958979;28;20193;-79
2022/07/10 04:21:50;;;;;;;8.27;1.80;;;;;;;;;;4964208;28;20218;-79
2022/07/10 04:24:17;;;;;;;4.30;1.80;;;;;;;;;;4956565;28;20207;-80
2022/07/10 04:26:45;;;;;;;6.47;1.67;;;;;;;;;;4941953;29;20206;-79
2022/07/10 04:29:16;;;;;;;7.27;1.70;;;;;;;;;;4944495;29;20206;-80
2022/07/10 04:31:46;;;;;;;2.97;1.70;;;;;;;;;;4943537;29;20210;-80
2022/07/10 04:34:16;;;;;;;5.43;1.57;;;;;;;;;;4943060;29;20259;-80
2022/07/10 04:36:46;;;;;;;3.73;1.50;;;;;;;;;;4941775;29;20234;-80
2022/07/10 04:39:16;;;;;;;4.20;1.60;;;;;;;;;;4939927;28;20214;-81
2022/07/10 04:41:46;;;;;;;3.53;1.53;;;;;;;;;;4938770;29;20660;-80
2022/07/10 04:44:13;;;;;;;3.93;1.60;;;;;;;;;;4942804;29;20209;-80
2022/07/10 04:46:40;;;;;;;5.70;1.70;;;;;;;;;;4943081;29;20576;-80
2022/07/10 04:49:09;;;;;;;5.13;1.53;;;;;;;;;;4941605;28;20217;-81
2022/07/10 04:51:36;;;;;;;4.23;1.60;;;;;;;;;;4938474;29;21105;-81
2022/07/10 04:54:04;;;;;;;5.40;1.60;;;;;;;;;;4933054;29;20234;-81
2022/07/10 04:56:32;;;;;;;3.10;1.70;;;;;;;;;;4938605;29;20218;-80
2022/07/10 04:59:04;;;;;;;6.37;1.77;;;;;;;;;;4939423;29;20211;-80
2022/07/10 05:01:31;;;;;;;10.87;1.80;;;;;;;;;;4940179;29;20207;-80
2022/07/10 05:03:58;;;;;;;6.43;1.37;;;;;;;;;;4938083;29;20210;-81
2022/07/10 05:06:32;;;;;;;5.27;1.60;;;;;;;;;;4940582;29;20210;-81
2022/07/10 05:08:59;;;;;;;5.37;1.50;;;;;;;;;;4938779;29;20285;-81
2022/07/10 05:11:26;;;;;;;2.17;1.30;;;;;;;;;;4939607;29;20239;-81
2022/07/10 05:14:08;;;;;;;7.87;1.70;;;;;;;;;;4938991;29;20227;-81
2022/07/10 05:19:26;;;;;;;6.90;1.37;;;;;;;;;;4939816;29;20605;-81
2022/07/10 05:22:00;;;;;;;5.77;1.70;;;;;;;;;;4938577;29;20199;-80
2022/07/10 05:24:28;;;;;;;10.23;1.47;;;;;;;;;;4935464;29;20199;-80
2022/07/10 05:26:55;;;;;;;6.90;1.40;;;;;;;;;;4941415;29;20206;-80
2022/07/10 05:29:22;;;;;;;5.80;1.40;;;;;;;;;;4938566;28;20249;-80
2022/07/10 05:31:50;;;;;;;4.90;1.50;;;;;;;;;;4942081;28;20206;-80
2022/07/10 05:34:17;;;;;;;7.93;1.40;;;;;;;;;;4935706;29;20715;-80
2022/07/10 05:36:44;;;;;;;7.73;1.80;;;;;;;;;;4940113;29;20216;-80
2022/07/10 05:39:12;;;;;;;6.40;1.20;;;;;;;;;;4936753;29;20207;-80
2022/07/10 05:41:39;;;;;;;5.63;1.30;;;;;;;;;;4936743;29;20557;-81
2022/07/10 05:44:10;;;;;;;7.77;1.53;;;;;;;;;;4940417;29;20215;-81
2022/07/10 05:46:37;;;;;;;9.80;1.50;;;;;;;;;;4936581;29;20676;-81
2022/07/10 05:49:05;;;;;;;6.43;1.23;;;;;;;;;;4942137;29;20213;-81
2022/07/10 05:51:33;;;;;;;8.57;1.63;;;;;;;;;;4941024;29;20214;-81
2022/07/10 05:54:00;;;;;;;5.53;1.20;;;;;;;;;;4936684;29;20715;-81
2022/07/10 05:56:27;;;;;;;3.23;1.20;;;;;;;;;;4941943;29;20212;-81
2022/07/10 05:58:55;;;;;;;5.07;1.10;;;;;;;;;;4943079;29;20695;-81
2022/07/10 06:01:22;;;;;;;7.47;1.40;;;;;;;;;;4936911;29;20236;-81
2022/07/10 06:03:49;;;;;;;10.83;1.53;;;;;;;;;;4937473;29;20199;-81
2022/07/10 06:06:18;;;;;;;7.80;1.37;;;;;;;;;;4942023;29;20329;-80
2022/07/10 06:08:45;;;;;;;6.47;1.37;;;;;;;;;;4949829;29;20271;-81
2022/07/10 06:11:13;;;;;;;4.80;1.10;;;;;;;;;;4948275;29;20261;-81
2022/07/10 06:13:40;;;;;;;7.73;1.23;;;;;;;;;;4939758;29;20254;-81
2022/07/10 06:16:15;;;;;;;6.13;1.57;;;;;;;;;;4937429;29;20707;-81
2022/07/10 06:18:42;;;;;;;9.07;1.53;;;;;;;;;;4939426;29;20270;-80
2022/07/10 06:21:09;;;;;;;4.53;1.20;;;;;;;;;;4938937;29;20737;-81
2022/07/10 06:23:54;;;;;;;9.27;1.60;;;;;;;;;;4933601;29;20272;-81
2022/07/10 06:26:46;;;;;;;7.10;1.50;;;;;;;;;;4935529;29;22072;-80
2022/07/10 06:29:16;;;;;;;6.17;1.40;;;;;;;;;;4937061;29;20268;-80
2022/07/10 06:31:43;;;;;;;4.83;1.07;;;;;;;;;;4936542;29;20211;-81
2022/07/10 06:36:55;;;;;;;7.50;1.20;;;;;;;;;;4937831;29;20588;-80
2022/07/10 06:39:22;;;;;;;7.67;1.30;;;;;;;;;;4938068;28;20299;-81
2022/07/10 06:41:51;;;;;;;5.10;1.33;;;;;;;;;;4943035;29;20207;-81
2022/07/10 06:44:21;;;;;;;8.47;1.30;;;;;;;;;;4940896;29;20207;-79
2022/07/10 06:49:35;;;;;;;5.87;1.50;;;;;;;;;;4940118;28;20227;-81
2022/07/10 06:52:02;;;;;;;4.60;1.20;;;;;;;;;;4940614;29;20722;-80
2022/07/10 06:54:29;;;;;;;4.33;1.10;;;;;;;;;;4941222;29;20231;-81
2022/07/10 06:56:58;;;;;;;8.83;1.33;;;;;;;;;;4945271;29;20738;-81
2022/07/10 06:59:25;;;;;;;3.37;0.83;;;;;;;;;;4939629;28;20976;-81
2022/07/10 07:01:52;;;;;;;6.83;1.33;;;;;;;;;;4938256;29;20202;-81
2022/07/10 07:04:19;;;;;;;9.00;1.37;;;;;;;;;;4938530;29;20214;-81
2022/07/10 07:06:47;;;;;;;5.30;1.10;;;;;;;;;;4940601;29;20793;-81
2022/07/10 07:09:18;;;;;;;5.07;1.13;;;;;;;;;;4941926;29;20202;-82
2022/07/10 07:11:45;;;;;;;13.20;1.30;;;;;;;;;;4941627;29;20199;-81
2022/07/10 07:14:14;;;;;;;6.03;1.10;;;;;;;;;;4940317;29;20254;-81
2022/07/10 07:16:43;;;;;;;6.00;1.13;;;;;;;;;;4944890;29;20206;-81
2022/07/10 07:19:11;;;;;;;4.77;0.90;;;;;;;;;;4939051;28;20214;-81
2022/07/10 07:24:23;;;;;;;4.23;1.27;;;;;;;;;;4942573;29;20314;-81
2022/07/10 07:26:50;;;;;;;3.67;1.03;;;;;;;;;;4941772;29;20207;-80
2022/07/10 07:29:19;;;;;;;10.10;1.67;;;;;;;;;;4941598;28;20210;-80
2022/07/10 07:34:28;;;;;;;9.20;1.73;;;;;;;;;;4942447;29;21313;-80
2022/07/10 07:36:55;;;;;;;12.60;1.53;;;;;;;;;;4946825;29;20217;-80
2022/07/10 07:39:22;;;;;;;3.20;1.20;;;;;;;;;;4942783;28;20219;-80
2022/07/10 07:41:49;;;;;;;2.47;1.10;;;;;;;;;;4945320;29;20314;-80
2022/07/10 07:44:18;;;;;;;5.23;1.20;;;;;;;;;;4939508;29;20209;-79
2022/07/10 07:46:45;;;;;;;5.63;1.00;;;;;;;;;;4944260;29;20211;-80
2022/07/10 07:49:12;;;;;;;5.07;1.10;;;;;;;;;;4947724;28;20210;-80
2022/07/10 07:51:39;;;;;;;8.63;1.37;;;;;;;;;;4960405;28;20286;-79
2022/07/10 07:54:12;;;;;;;6.93;1.60;;;;;;;;;;4961007;28;20235;-79
2022/07/10 07:56:48;;;;;;;8.97;1.20;;;;;;;;;;4943951;29;20227;-80
2022/07/10 07:59:15;;;;;;;8.47;1.10;;;;;;;;;;4942678;28;20206;-80
2022/07/10 08:01:44;;;;;;;8.33;1.53;;;;;;;;;;4939080;29;20211;-80
2022/07/10 08:04:12;;;;;;;8.43;1.10;;;;;;;;;;4940992;29;20217;-80
2022/07/10 08:06:39;;;;;;;7.23;1.30;;;;;;;;;;4943315;29;20211;-80
2022/07/10 08:09:06;;;;;;;9.87;1.27;;;;;;;;;;4940024;29;20661;-80
2022/07/10 08:14:17;;;;;;;6.23;1.20;;;;;;;;;;4939225;29;20218;-80
2022/07/10 08:16:46;;;;;;;8.07;1.37;;;;;;;;;;4939118;29;20203;-80
2022/07/10 08:19:14;;;;;;;9.40;1.17;;;;;;;;;;4945424;28;20230;-80
2022/07/10 08:22:00;;;;;;;6.93;1.20;;;;;;;;;;4940976;29;20210;-80
2022/07/10 08:24:28;;;;;;;5.37;1.13;;;;;;;;;;4940743;29;20675;-80
2022/07/10 08:26:56;;;;;;;6.93;1.00;;;;;;;;;;4939289;29;20206;-81
2022/07/10 08:29:23;;;;;;;6.73;1.17;;;;;;;;;;4941494;28;20249;-81
2022/07/10 08:34:44;;;;;;;6.93;1.17;;;;;;;;;;5120195;27;20594;-76
2022/07/10 08:37:11;;;;;;;3.47;0.80;;;;;;;;;;5104452;27;20231;-78
2022/07/10 08:39:39;;;;;;;10.50;1.10;;;;;;;;;;5104749;28;20917;-77
2022/07/10 08:42:08;;;;;;;4.43;1.00;;;;;;;;;;5104679;28;20205;-78
2022/07/10 08:44:35;;;;;;;7.73;1.00;;;;;;;;;;5101731;28;20650;-77
2022/07/10 08:47:03;;;;;;;8.07;1.10;;;;;;;;;;5102751;28;20288;-77
2022/07/10 08:49:31;;;;;;;4.57;1.03;;;;;;;;;;5103045;28;20287;-76
2022/07/10 08:52:00;;;;;;;7.73;1.10;;;;;;;;;;5101365;28;20258;-77
2022/07/10 08:54:29;;;;;;;7.10;0.80;;;;;;;;;;5100530;28;20601;-76
2022/07/10 08:56:57;;;;;;;11.17;1.27;;;;;;;;;;5097108;28;20224;-77
2022/07/10 08:59:24;;;;;;;4.13;1.10;;;;;;;;;;5099383;27;20284;-78
2022/07/10 09:01:53;;;;;;;5.80;0.90;;;;;;;;;;5102912;28;20204;-77
2022/07/10 09:04:21;;;;;;;3.60;0.90;;;;;;;;;;5098756;28;20591;-76
2022/07/10 09:06:48;;;;;;;4.63;0.83;;;;;;;;;;5101310;28;20288;-76
2022/07/10 09:09:16;;;;;;;5.97;0.80;;;;;;;;;;5097406;28;20276;-78
2022/07/10 09:11:44;;;;;;;2.50;0.50;;;;;;;;;;5097529;28;20596;-78
2022/07/10 09:14:12;;;;;;;3.37;0.53;;;;;;;;;;5095163;27;20221;-78
2022/07/10 09:16:40;;;;;;;5.50;0.63;;;;;;;;;;5098543;28;20216;-77
2022/07/10 09:19:18;;;;;;;4.57;0.90;;;;;;;;;;5098311;28;20225;-77
2022/07/10 09:21:46;;;;;;;5.33;0.90;;;;;;;;;;5103554;28;20297;-77
2022/07/10 09:24:13;;;;;;;7.73;0.93;;;;;;;;;;5101659;27;20225;-77
2022/07/10 09:26:42;;;;;;;5.10;0.80;;;;;;;;;;5109694;28;20210;-77
2022/07/10 09:29:10;;;;;;;5.37;0.83;;;;;;;;;;5098792;28;20288;-76
2022/07/10 09:31:50;;;;;;;8.00;1.20;;;;;;;;;;5104433;28;20206;-76
2022/07/10 09:34:17;;;;;;;5.60;0.87;;;;;;;;;;5096424;28;20240;-76
2022/07/10 09:36:44;;;;;;;6.80;0.70;;;;;;;;;;5106259;28;20292;-76
2022/07/10 09:39:11;;;;;;;3.50;0.70;;;;;;;;;;5096786;28;20295;-77
2022/07/10 09:41:39;;;;;;;6.43;1.00;;;;;;;;;;5096929;28;20211;-76
2022/07/10 09:44:08;;;;;;;3.60;0.90;;;;;;;;;;5096064;28;20214;-75
2022/07/10 09:46:36;;;;;;;4.63;1.03;;;;;;;;;;5086627;28;20205;-76
2022/07/10 09:49:04;;;;;;;4.53;0.83;;;;;;;;;;5086515;28;20290;-76
2022/07/10 09:51:33;;;;;;;3.17;0.80;;;;;;;;;;5088767;28;20877;-76
2022/07/10 09:54:02;;;;;;;7.33;0.80;;;;;;;;;;5084058;28;20235;-77
2022/07/10 09:56:32;;;;;;;4.40;0.90;;;;;;;;;;5085342;28;20625;-76
2022/07/10 09:59:01;;;;;;;9.07;1.20;;;;;;;;;;5079767;28;20625;-77
2022/07/10 10:04:39;;;;;;;4.10;0.60;;;;;;;;;;5070581;28;20586;-76
2022/07/10 10:07:12;;;;;;;5.27;0.80;;;;;;;;;;5082580;28;20208;-77
2022/07/10 10:09:41;;;;;;;3.90;1.00;;;;;;;;;;5078234;28;22026;-76
2022/07/10 10:12:11;;;;;;;3.13;0.70;;;;;;;;;;5083815;28;20204;-77
2022/07/10 10:14:40;;;;;;;4.70;0.80;;;;;;;;;;5078339;28;20290;-77
2022/07/10 10:17:09;;;;;;;3.53;0.70;;;;;;;;;;5078897;28;20198;-76
2022/07/10 10:22:23;;;;;;;4.00;0.80;;;;;;;;;;5076067;28;20251;-79
2022/07/10 10:24:50;;;;;;;2.27;0.70;;;;;;;;;;5079540;28;20617;-79
2022/07/10 10:30:31;;;;;;;2.73;0.57;;;;;;;;;;5055402;28;20844;-78
2022/07/10 10:33:00;;;;;;;4.73;0.77;;;;;;;;;;5077439;28;20929;-78
2022/07/10 10:35:44;;;;;;;3.00;0.60;;;;;;;;;;5077887;28;21334;-77
2022/07/10 10:38:11;;;;;;;4.80;0.60;;;;;;;;;;5082688;28;20213;-78
2022/07/10 10:40:38;;;;;;;4.53;0.90;;;;;;;;;;5082497;28;21164;-80
2022/07/10 10:43:19;;;;;;;4.07;0.70;;;;;;;;;;5085859;28;20575;-77
2022/07/10 10:45:46;;;;;;;3.70;0.80;;;;;;;;;;5081501;28;21281;-77
2022/07/10 10:50:59;;;;;;;3.77;0.73;;;;;;;;;;5081609;28;20198;-76
2022/07/10 10:53:27;;;;;;;6.73;1.53;;;;;;;;;;5081396;28;20283;-76
2022/07/10 10:56:12;;;;;;;5.23;1.10;;;;;;;;;;5076546;28;20198;-77
2022/07/10 10:58:41;;;;;;;1.77;0.63;;;;;;;;;;5078672;28;20221;-76
2022/07/10 11:01:25;;;;;;;5.03;1.40;;;;;;;;;;5079484;28;20287;-75
2022/07/10 11:04:07;;;;;;;7.07;1.07;;;;;;;;;;5073128;28;20222;-76
2022/07/10 11:06:42;;;;;;;7.53;0.97;;;;;;;;;;5076560;28;20201;-75
2022/07/10 11:09:22;;;;;;;4.83;0.80;;;;;;;;;;5078844;28;20285;-79
2022/07/10 11:11:59;;;;;;;5.03;1.20;;;;;;;;;;5080338;28;20197;-75
2022/07/10 11:14:28;;;;;;;2.47;0.80;;;;;;;;;;5078134;28;20229;-77
2022/07/10 11:16:55;;;;;;;5.63;1.20;;;;;;;;;;5077401;28;20282;-79
2022/07/10 11:19:25;;;;;;;4.37;1.07;;;;;;;;;;5076695;28;20217;-75
2022/07/10 11:21:56;;;;;;;4.60;1.07;;;;;;;;;;5082525;28;20206;-75
2022/07/10 11:24:35;;;;;;;7.50;1.10;;;;;;;;;;5075991;28;20307;-75
2022/07/10 11:27:11;;;;;;;5.67;1.13;;;;;;;;;;5084710;28;20197;-78
2022/07/10 11:29:39;;;;;;;3.07;0.93;;;;;;;;;;5077792;28;20593;-78
2022/07/10 11:32:07;;;;;;;3.00;0.97;;;;;;;;;;5078865;28;20229;-79
2022/07/10 11:34:38;;;;;;;4.27;1.00;;;;;;;;;;5075426;28;20687;-77
2022/07/10 11:37:14;;;;;;;2.13;1.00;;;;;;;;;;5079546;28;20503;-76
2022/07/10 11:39:42;;;;;;;5.47;0.90;;;;;;;;;;5078475;28;20577;-79
2022/07/10 11:42:09;;;;;;;5.93;1.10;;;;;;;;;;5078297;27;20656;-77
2022/07/10 11:44:36;;;;;;;5.70;0.87;;;;;;;;;;5076642;28;20233;-81
2022/07/10 11:47:03;;;;;;;1.90;0.80;;;;;;;;;;5073719;28;20292;-77
2022/07/10 11:49:31;;;;;;;4.57;0.70;;;;;;;;;;5074829;28;20281;-80
2022/07/10 11:52:03;;;;;;;1.97;0.73;;;;;;;;;;5070997;28;20202;-77
2022/07/10 11:54:31;;;;;;;4.67;0.80;;;;;;;;;;5073571;28;20218;-76
2022/07/10 11:57:06;;;;;;;2.47;0.77;;;;;;;;;;5075087;28;20193;-77
2022/07/10 11:59:33;;;;;;;3.83;0.93;;;;;;;;;;5074903;28;20217;-77
2022/07/10 12:02:00;;;;;;;4.37;0.77;;;;;;;;;;5062857;28;20217;-77
2022/07/10 12:04:30;;;;;;;2.47;0.80;;;;;;;;;;5074080;28;20221;-77
2022/07/10 12:06:57;;;;;;;3.13;0.90;;;;;;;;;;5074772;28;20216;-78
2022/07/10 12:09:24;;;;;;;4.07;0.63;;;;;;;;;;5072838;28;20205;-77
2022/07/10 12:12:00;;;;;;;6.87;0.70;;;;;;;;;;5074147;28;20201;-78
2022/07/10 12:14:30;;;;;;;3.23;0.70;;;;;;;;;;5077462;28;20221;-78
2022/07/10 12:16:57;;;;;;;2.73;0.50;;;;;;;;;;5080516;28;20206;-76
2022/07/10 12:19:27;;;;;;;3.50;0.70;;;;;;;;;;5078236;28;20248;-76
2022/07/10 12:21:54;;;;;;;2.23;0.60;;;;;;;;;;5076845;28;20292;-78
2022/07/10 12:24:23;;;;;;;2.53;0.70;;;;;;;;;;5075546;28;20241;-79
2022/07/10 12:26:52;;;;;;;1.67;0.47;;;;;;;;;;5081112;28;20198;-79
2022/07/10 12:29:24;;;;;;;2.43;0.53;;;;;;;;;;5077284;28;20205;-77
2022/07/10 12:31:52;;;;;;;2.17;0.60;;;;;;;;;;5074047;28;20216;-76
2022/07/10 12:34:21;;;;;;;3.60;0.70;;;;;;;;;;5074939;28;20611;-77
2022/07/10 12:36:49;;;;;;;0.87;0.30;;;;;;;;;;5079596;28;20216;-78
2022/07/10 12:39:17;;;;;;;2.83;0.60;;;;;;;;;;5080269;28;20693;-76
2022/07/10 12:42:01;;;;;;;2.07;0.50;;;;;;;;;;5081367;28;20206;-75
2022/07/10 12:44:37;;;;;;;3.80;0.40;;;;;;;;;;5075298;28;20237;-76
2022/07/10 12:47:08;;;;;;;2.10;0.40;;;;;;;;;;5078077;28;20281;-77
2022/07/10 12:49:49;;;;;;;4.47;0.40;;;;;;;;;;5080716;28;20202;-76
2022/07/10 12:52:20;;;;;;;1.37;0.50;;;;;;;;;;5075044;28;20208;-75
2022/07/10 12:54:48;;;;;;;0.70;0.40;;;;;;;;;;5075105;28;20234;-76
2022/07/10 12:57:15;;;;;;;1.70;0.40;;;;;;;;;;5073193;28;20933;-78
2022/07/10 12:59:43;;;;;;;3.30;0.50;;;;;;;;;;5075621;28;20208;-76
2022/07/10 13:02:17;;;;;;;1.13;0.30;;;;;;;;;;5072482;28;20198;-78
2022/07/10 13:04:53;;;;;;;3.63;0.47;;;;;;;;;;5072378;28;20501;-77
2022/07/10 13:07:21;;;;;;;1.23;0.30;;;;;;;;;;5071901;28;20572;-77
2022/07/10 13:09:50;;;;;;;1.90;0.40;;;;;;;;;;5074567;28;20295;-77
2022/07/10 13:12:17;;;;;;;0.70;0.50;;;;;;;;;;5073623;28;20742;-77
2022/07/10 13:14:46;;;;;;;2.00;0.80;;;;;;;;;;5075529;28;20577;-77
2022/07/10 13:17:13;;;;;;;3.00;0.60;;;;;;;;;;5073917;28;20217;-77
2022/07/10 13:19:40;;;;;;;1.90;0.43;;;;;;;;;;5073263;28;20208;-76
2022/07/10 13:22:07;;;;;;;3.03;0.60;;;;;;;;;;5076599;28;20637;-78
2022/07/10 13:24:34;;;;;;;0.77;0.43;;;;;;;;;;5075061;28;20696;-77
2022/07/10 13:27:02;;;;;;;0.90;0.40;;;;;;;;;;5075906;28;20202;-77
2022/07/10 13:29:29;;;;;;;3.43;0.43;;;;;;;;;;5075592;28;20582;-77
2022/07/10 13:31:57;;;;;;;1.07;0.40;;;;;;;;;;5078049;28;20297;-78
2022/07/10 13:34:25;;;;;;;1.90;0.70;;;;;;;;;;5078294;28;20235;-76
2022/07/10 13:36:55;;;;;;;2.40;0.50;;;;;;;;;;5084635;28;20210;-77
2022/07/10 13:42:25;;;;;;;1.60;0.40;;;;;;;;;;5039816;28;20259;-77
2022/07/10 13:44:52;;;;;;;1.30;0.43;;;;;;;;;;5076906;28;20222;-78
2022/07/10 13:50:22;;;;;;;1.47;0.40;;;;;;;;;;5046838;28;20942;-76
2022/07/10 13:52:49;;;;;;;1.67;0.40;;;;;;;;;;5055301;28;20205;-76
2022/07/10 13:55:17;;;;;;;0.43;0.30;;;;;;;;;;5075725;28;20232;-75
2022/07/10 13:57:44;;;;;;;0.50;0.40;;;;;;;;;;5082673;28;20201;-78
2022/07/10 14:00:11;;;;;;;0.73;0.30;;;;;;;;;;5076631;28;20231;-78
2022/07/10 14:02:39;;;;;;;0.33;0.30;;;;;;;;;;5077297;28;20679;-77
2022/07/10 14:05:07;;;;;;;1.10;0.53;;;;;;;;;;5077069;28;20228;-80
2022/07/10 14:07:36;;;;;;;0.77;0.37;;;;;;;;;;5080420;28;20243;-78
2022/07/10 14:10:04;;;;;;;0.47;0.33;;;;;;;;;;5071076;28;20201;-76
2022/07/10 14:12:31;;;;;;;0.77;0.30;;;;;;;;;;5070456;28;20202;-77
2022/07/10 14:14:58;;;;;;;0.43;0.20;;;;;;;;;;5084782;28;20312;-78
2022/07/10 14:17:25;;;;;;;1.03;0.37;;;;;;;;;;5076490;28;20234;-77
2022/07/10 14:19:53;;;;;;;0.30;0.30;;;;;;;;;;5083272;28;20251;-78
2022/07/10 14:22:21;;;;;;;1.30;0.50;;;;;;;;;;5082766;28;20235;-77
2022/07/10 14:24:50;;;;;;;0.60;0.40;;;;;;;;;;5082439;28;20230;-78
2022/07/10 14:27:17;;;;;;;1.60;0.40;;;;;;;;;;5080149;28;20289;-78
2022/07/10 14:29:44;;;;;;;0.83;0.50;;;;;;;;;;5080149;28;20240;-78
2022/07/10 14:32:11;;;;;;;0.83;0.33;;;;;;;;;;5081709;28;20628;-77
2022/07/10 14:34:39;;;;;;;0.67;0.40;;;;;;;;;;5079591;28;20233;-78
2022/07/10 14:37:06;;;;;;;0.70;0.40;;;;;;;;;;5080896;28;20297;-76
2022/07/10 14:39:33;;;;;;;2.10;0.40;;;;;;;;;;5083039;28;20652;-78
2022/07/10 14:42:01;;;;;;;1.13;0.30;;;;;;;;;;5086680;28;20289;-78
2022/07/10 14:44:29;;;;;;;2.13;0.70;;;;;;;;;;5081557;28;20233;-77
2022/07/10 14:46:56;;;;;;;1.80;0.50;;;;;;;;;;5080971;28;20251;-78
2022/07/10 14:49:23;;;;;;;2.23;0.70;;;;;;;;;;5079037;28;20672;-77
2022/07/10 14:51:51;;;;;;;0.70;0.50;;;;;;;;;;5079456;28;20236;-77
2022/07/10 14:54:18;;;;;;;1.97;0.50;;;;;;;;;;5075529;28;20241;-77
2022/07/10 14:56:45;;;;;;;0.70;0.50;;;;;;;;;;5080855;28;20206;-77
2022/07/10 14:59:14;;;;;;;1.10;0.50;;;;;;;;;;5081197;28;20214;-76
2022/07/10 15:01:41;;;;;;;0.70;0.40;;;;;;;;;;5076870;28;20292;-78
2022/07/10 15:04:08;;;;;;;1.03;0.73;;;;;;;;;;5087335;28;20233;-77
2022/07/10 15:06:35;;;;;;;0.87;0.60;;;;;;;;;;5078173;28;20233;-78
2022/07/10 15:09:03;;;;;;;0.70;0.50;;;;;;;;;;5084277;28;20213;-75
2022/07/10 15:11:30;;;;;;;1.00;0.70;;;;;;;;;;5076410;28;20233;-75
2022/07/10 15:13:59;;;;;;;1.23;0.70;;;;;;;;;;5078472;28;20234;-77
2022/07/10 15:16:28;;;;;;;1.47;0.80;;;;;;;;;;5084295;28;20316;-75
2022/07/10 15:18:55;;;;;;;1.37;0.90;;;;;;;;;;5077634;28;20237;-76
2022/07/10 15:21:23;;;;;;;1.30;0.87;;;;;;;;;;5079292;28;20216;-77
2022/07/10 15:23:50;;;;;;;1.10;0.80;;;;;;;;;;5077172;28;20242;-78
2022/07/10 15:26:18;;;;;;;3.33;1.10;;;;;;;;;;5081612;28;20198;-76
2022/07/10 15:28:45;;;;;;;1.93;1.50;;;;;;;;;;5083644;28;20209;-76
2022/07/10 15:31:12;;;;;;;2.40;1.77;;;;;;;;;;5083663;28;20226;-77
2022/07/10 15:33:45;;;;;;;4.07;1.87;;;;;;;;;;5079846;28;20322;-77
2022/07/10 15:36:12;;;;;;;3.20;2.00;;;;;;;;;;5081001;28;20232;-78
2022/07/10 15:38:40;;;;;;;3.07;2.10;;;;;;;;;;5076163;28;20214;-77
2022/07/10 15:41:07;;;;;;;4.17;2.33;;;;;;;;;;5080024;28;20632;-76